Time;durP1;ratioP1;P1;durP2;ratioP2;P2;SDS_P1;SDS_P2;PMS_P1;PMS_P2;Temp;Humidity;BMP_temperature;BMP_pressure;BME280_temperature;BME280_humidity;BME280_pressure;Samples;Min_cycle;Max_cycle;Signal;HPM_P1;HPM_P2
2021/05/10 00:00:26;;;;;;;11.52;9.52;;;16.30;99.90;;;;;;4147598;28;20037;-78
2021/05/10 00:02:27;;;;;;;11.88;10.68;;;16.40;99.90;;;;;;4146780;28;20044;-78
2021/05/10 00:04:28;;;;;;;12.07;10.55;;;16.40;99.90;;;;;;4146518;28;20549;-78
2021/05/10 00:06:28;;;;;;;11.25;9.70;;;16.40;99.90;;;;;;4146203;28;20041;-79
2021/05/10 00:08:29;;;;;;;12.05;10.90;;;16.30;99.90;;;;;;4146418;28;20413;-79
2021/05/10 00:10:30;;;;;;;11.10;10.05;;;16.30;99.90;;;;;;4162399;28;20400;-78
2021/05/10 00:12:31;;;;;;;12.82;11.63;;;16.30;99.90;;;;;;4162695;28;20041;-78
2021/05/10 00:14:40;;;;;;;12.40;11.18;;;16.30;99.90;;;;;;4146346;28;20120;-79
2021/05/10 00:16:41;;;;;;;12.77;11.43;;;16.30;99.90;;;;;;4147499;28;20037;-78
2021/05/10 00:18:42;;;;;;;12.23;11.05;;;16.30;99.90;;;;;;4162671;28;20518;-79
2021/05/10 00:20:45;;;;;;;11.00;10.05;;;16.20;99.90;;;;;;4162113;28;20061;-79
2021/05/10 00:22:46;;;;;;;12.75;11.55;;;16.20;99.90;;;;;;4145693;28;20068;-77
2021/05/10 00:24:47;;;;;;;12.57;11.35;;;16.20;99.90;;;;;;4145524;28;20062;-77
2021/05/10 00:26:48;;;;;;;11.73;10.63;;;16.20;99.90;;;;;;4161214;28;20109;-78
2021/05/10 00:28:48;;;;;;;12.48;11.38;;;16.20;99.90;;;;;;4145853;28;20095;-78
2021/05/10 00:30:49;;;;;;;12.05;10.85;;;16.20;99.90;;;;;;4146003;28;20057;-79
2021/05/10 00:32:50;;;;;;;12.70;11.60;;;16.20;99.90;;;;;;4144784;28;20037;-77
2021/05/10 00:34:52;;;;;;;16.38;12.73;;;16.10;99.90;;;;;;4144672;28;20533;-78
2021/05/10 00:36:54;;;;;;;11.65;10.50;;;16.10;99.90;;;;;;4146652;28;20040;-78
2021/05/10 00:38:54;;;;;;;11.85;10.75;;;16.00;99.90;;;;;;4147337;28;20351;-78
2021/05/10 00:40:55;;;;;;;12.38;11.15;;;16.00;99.90;;;;;;4147536;28;20044;-78
2021/05/10 00:42:56;;;;;;;12.40;11.10;;;16.00;99.90;;;;;;4161158;28;20037;-78
2021/05/10 00:44:57;;;;;;;15.48;12.65;;;16.00;99.90;;;;;;4144576;28;20527;-78
2021/05/10 00:46:58;;;;;;;13.05;11.65;;;16.00;99.90;;;;;;4144462;28;20061;-79
2021/05/10 00:48:59;;;;;;;13.52;12.32;;;16.00;99.90;;;;;;4144849;28;20042;-78
2021/05/10 00:50:59;;;;;;;14.38;12.98;;;16.00;99.90;;;;;;4143171;28;20026;-78
2021/05/10 00:53:00;;;;;;;13.95;12.63;;;15.90;99.90;;;;;;4159588;28;20579;-79
2021/05/10 00:55:03;;;;;;;13.73;12.40;;;15.90;99.90;;;;;;4143935;28;20492;-78
2021/05/10 00:57:04;;;;;;;14.57;12.70;;;15.90;99.90;;;;;;4143591;28;20117;-77
2021/05/10 00:59:06;;;;;;;11.10;10.15;;;15.80;99.90;;;;;;4160456;28;20025;-76
2021/05/10 01:01:06;;;;;;;13.52;12.18;;;15.80;99.90;;;;;;4127160;28;20019;-78
2021/05/10 01:03:08;;;;;;;14.00;12.60;;;15.70;99.90;;;;;;4159815;28;20497;-79
2021/05/10 01:05:11;;;;;;;14.40;12.80;;;15.80;99.90;;;;;;4144244;28;20030;-79
2021/05/10 01:07:15;;;;;;;14.95;12.48;;;15.80;99.90;;;;;;4160008;28;20083;-77
2021/05/10 01:09:16;;;;;;;13.88;12.48;;;16.20;99.90;;;;;;4160498;28;20120;-79
2021/05/10 01:11:17;;;;;;;15.48;13.80;;;15.70;99.90;;;;;;4146229;28;20445;-78
2021/05/10 01:13:18;;;;;;;16.48;14.68;;;15.60;99.90;;;;;;4160857;28;20125;-79
2021/05/10 01:15:22;;;;;;;15.38;13.77;;;15.60;99.90;;;;;;4149658;28;20412;-79
2021/05/10 01:17:23;;;;;;;16.42;13.65;;;15.60;99.90;;;;;;4128396;28;20038;-79
2021/05/10 01:19:26;;;;;;;14.40;12.95;;;15.60;99.90;;;;;;4128902;28;20039;-78
2021/05/10 01:21:29;;;;;;;13.27;12.10;;;15.60;99.90;;;;;;4127854;28;20540;-78
2021/05/10 01:23:31;;;;;;;14.90;12.43;;;15.60;99.90;;;;;;4160608;28;20040;-78
2021/05/10 01:25:32;;;;;;;15.00;13.43;;;15.50;99.90;;;;;;4160605;28;20095;-78
2021/05/10 01:27:34;;;;;;;16.67;12.32;;;15.60;99.90;;;;;;4160527;28;20679;-78
2021/05/10 01:29:35;;;;;;;15.13;13.73;;;15.60;99.90;;;;;;4144343;28;20045;-78
2021/05/10 01:31:36;;;;;;;16.23;14.18;;;15.60;99.90;;;;;;4127882;28;20038;-78
2021/05/10 01:33:37;;;;;;;14.80;13.43;;;15.60;99.90;;;;;;4128746;28;20035;-78
2021/05/10 01:35:42;;;;;;;15.63;14.15;;;15.50;99.90;;;;;;4145253;28;20037;-77
2021/05/10 01:37:42;;;;;;;15.48;13.98;;;15.50;99.90;;;;;;4161830;28;20531;-78
2021/05/10 01:39:43;;;;;;;16.27;14.38;;;15.40;99.90;;;;;;4112807;28;20046;-79
2021/05/10 01:41:44;;;;;;;14.15;12.75;;;15.40;99.90;;;;;;4144535;28;20034;-79
2021/05/10 01:43:44;;;;;;;14.85;13.57;;;15.30;99.90;;;;;;4129355;28;20093;-78
2021/05/10 01:45:48;;;;;;;14.80;13.40;;;15.30;99.90;;;;;;4130159;28;20042;-78
2021/05/10 01:47:57;;;;;;;16.90;15.30;;;15.30;99.90;;;;;;4161798;28;20048;-78
2021/05/10 01:49:58;;;;;;;15.95;14.35;;;15.20;99.90;;;;;;4161573;28;20396;-79
2021/05/10 01:52:02;;;;;;;15.50;14.10;;;15.30;99.90;;;;;;4130591;28;20034;-78
2021/05/10 01:54:03;;;;;;;15.55;14.15;;;15.30;99.90;;;;;;4161209;28;20061;-78
2021/05/10 01:56:04;;;;;;;17.05;15.25;;;15.20;99.90;;;;;;4145202;28;20129;-78
2021/05/10 01:58:07;;;;;;;14.70;13.20;;;15.30;99.90;;;;;;4128911;28;20105;-78
2021/05/10 02:00:11;;;;;;;17.60;15.43;;;;;;;;;;4130230;28;20046;-77
2021/05/10 02:02:13;;;;;;;16.13;14.48;;;15.00;99.90;;;;;;4161667;28;20037;-77
2021/05/10 02:04:14;;;;;;;17.15;15.43;;;15.30;99.90;;;;;;4145295;28;20038;-78
2021/05/10 02:06:15;;;;;;;16.52;14.75;;;15.60;99.90;;;;;;4129266;28;20072;-78
2021/05/10 02:08:16;;;;;;;16.25;14.75;;;15.40;99.90;;;;;;4129021;28;20085;-79
2021/05/10 02:10:27;;;;;;;16.75;15.23;;;15.50;99.90;;;;;;4145055;28;20105;-79
2021/05/10 02:12:27;;;;;;;15.68;14.25;;;15.50;99.90;;;;;;4161600;28;20037;-79
2021/05/10 02:14:31;;;;;;;16.33;14.73;;;15.60;99.90;;;;;;4130442;28;20118;-78
2021/05/10 02:16:32;;;;;;;16.65;15.00;;;15.60;99.90;;;;;;4163882;28;20583;-77
2021/05/10 02:18:35;;;;;;;18.95;16.95;;;15.60;99.90;;;;;;4115732;28;20039;-78
2021/05/10 02:20:38;;;;;;;17.80;15.88;;;15.60;99.90;;;;;;4164524;28;20117;-78
2021/05/10 02:22:39;;;;;;;19.33;15.18;;;15.60;99.90;;;;;;4147834;28;20038;-78
2021/05/10 02:24:40;;;;;;;16.30;14.77;;;15.50;99.90;;;;;;4115749;28;20058;-78
2021/05/10 02:26:41;;;;;;;14.60;13.10;;;15.50;99.90;;;;;;4131901;28;20437;-77
2021/05/10 02:28:41;;;;;;;17.33;15.52;;;15.50;99.90;;;;;;4132783;28;20042;-78
2021/05/10 02:30:43;;;;;;;18.70;16.35;;;15.40;99.90;;;;;;4134761;28;20049;-78
2021/05/10 02:32:44;;;;;;;15.52;14.05;;;15.40;99.90;;;;;;4147414;28;20029;-78
2021/05/10 02:34:45;;;;;;;18.23;16.42;;;15.30;99.90;;;;;;4147785;28;20045;-78
2021/05/10 02:36:46;;;;;;;27.33;18.05;;;15.30;99.90;;;;;;4149397;28;20076;-78
2021/05/10 02:38:47;;;;;;;21.10;19.08;;;15.20;99.90;;;;;;4147525;28;20034;-78
2021/05/10 02:40:48;;;;;;;19.80;17.77;;;15.10;99.90;;;;;;4147529;28;20124;-78
2021/05/10 02:42:49;;;;;;;21.75;18.05;;;15.00;99.90;;;;;;4163888;28;20030;-79
2021/05/10 02:44:50;;;;;;;19.95;18.00;;;15.00;99.90;;;;;;4149004;28;20057;-79
2021/05/10 02:46:51;;;;;;;22.00;18.27;;;15.00;99.90;;;;;;4152361;28;20033;-78
2021/05/10 02:48:52;;;;;;;20.25;18.30;;;14.90;99.90;;;;;;4146444;28;20050;-79
2021/05/10 02:50:53;;;;;;;19.55;16.75;;;14.80;99.90;;;;;;4147496;28;20481;-79
2021/05/10 02:52:54;;;;;;;21.40;18.17;;;14.90;99.90;;;;;;4147250;28;20042;-79
2021/05/10 02:54:55;;;;;;;19.40;17.50;;;14.80;99.90;;;;;;4164035;28;20034;-79
2021/05/10 02:56:55;;;;;;;21.58;19.35;;;14.70;99.90;;;;;;4147552;28;20057;-79
2021/05/10 02:58:57;;;;;;;22.27;19.95;;;14.70;99.90;;;;;;4147828;28;20689;-80
2021/05/10 03:00:58;;;;;;;22.08;19.20;;;14.70;99.90;;;;;;4148421;28;20117;-77
2021/05/10 03:02:58;;;;;;;20.40;18.40;;;14.60;99.90;;;;;;4148724;28;20117;-78
2021/05/10 03:04:59;;;;;;;20.73;18.63;;;14.60;99.90;;;;;;4157339;28;20058;-79
2021/05/10 03:07:00;;;;;;;19.92;17.80;;;14.60;99.90;;;;;;4123219;28;20125;-78
2021/05/10 03:09:01;;;;;;;19.55;17.67;;;14.60;99.90;;;;;;4174809;28;20040;-78
2021/05/10 03:11:02;;;;;;;19.40;17.60;;;14.60;99.90;;;;;;4147130;28;20041;-78
2021/05/10 03:13:03;;;;;;;20.67;18.42;;;14.70;99.90;;;;;;4148146;28;20066;-78
2021/05/10 03:15:08;;;;;;;18.45;16.67;;;14.70;99.90;;;;;;4143954;28;20033;-78
2021/05/10 03:17:09;;;;;;;19.85;17.95;;;14.70;99.90;;;;;;4154024;28;20539;-79
2021/05/10 03:19:10;;;;;;;20.08;17.20;;;14.60;99.90;;;;;;4145301;28;20034;-78
2021/05/10 03:21:11;;;;;;;18.23;16.02;;;14.60;99.90;;;;;;4146932;28;20038;-77
2021/05/10 03:23:11;;;;;;;17.98;16.27;;;14.60;99.90;;;;;;4129333;28;20026;-77
2021/05/10 03:25:12;;;;;;;17.15;15.45;;;14.60;99.90;;;;;;4161971;28;20033;-76
2021/05/10 03:27:13;;;;;;;15.00;13.25;;;14.50;99.90;;;;;;4135002;28;20026;-78
2021/05/10 03:29:14;;;;;;;15.65;13.35;;;14.60;99.90;;;;;;4145254;28;20022;-78
2021/05/10 03:31:14;;;;;;;14.77;13.23;;;14.60;99.90;;;;;;4146012;28;20030;-78
2021/05/10 03:33:15;;;;;;;12.82;11.63;;;14.70;99.90;;;;;;4146397;28;20026;-79
2021/05/10 03:35:17;;;;;;;13.95;12.50;;;14.80;99.90;;;;;;4117557;28;20394;-78
2021/05/10 03:37:17;;;;;;;12.93;11.05;;;14.90;99.90;;;;;;4157269;28;20132;-78
2021/05/10 03:39:19;;;;;;;11.10;10.00;;;14.90;99.90;;;;;;4139832;28;20038;-78
2021/05/10 03:41:22;;;;;;;10.48;9.38;;;15.00;99.90;;;;;;4147776;28;20061;-78
2021/05/10 03:43:23;;;;;;;10.23;8.77;;;15.10;99.90;;;;;;4146205;28;20359;-78
2021/05/10 03:45:27;;;;;;;12.30;9.13;;;15.20;99.90;;;;;;4147654;28;20048;-78
2021/05/10 03:47:39;;;;;;;8.48;7.63;;;15.30;99.90;;;;;;4146652;28;20058;-78
2021/05/10 03:49:40;;;;;;;12.15;7.53;;;15.50;99.90;;;;;;4146549;28;20038;-78
2021/05/10 03:51:40;;;;;;;9.02;7.47;;;15.70;99.90;;;;;;4146510;28;20034;-78
2021/05/10 03:53:41;;;;;;;7.93;6.43;;;15.80;99.90;;;;;;4146262;28;20460;-77
2021/05/10 03:55:42;;;;;;;10.40;6.82;;;15.90;99.90;;;;;;4145606;28;20053;-78
2021/05/10 03:57:44;;;;;;;10.68;7.50;;;15.80;99.90;;;;;;4179061;28;20048;-78
2021/05/10 03:59:44;;;;;;;8.13;7.30;;;15.70;99.90;;;;;;4139003;28;20156;-78
2021/05/10 04:01:45;;;;;;;7.75;5.95;;;15.70;99.90;;;;;;4162295;28;20046;-77
2021/05/10 04:03:53;;;;;;;6.88;6.28;;;15.80;99.90;;;;;;4159174;28;20042;-78
2021/05/10 04:06:17;;;;;;;6.25;5.38;;;15.90;99.90;;;;;;4130610;28;20442;-78
2021/05/10 04:15:14;;;;;;;5.00;4.50;;;16.00;99.90;;;;;;4147149;28;20118;-78
2021/05/10 04:17:15;;;;;;;3.90;3.50;;;16.10;99.90;;;;;;4147215;28;20037;-78
2021/05/10 04:19:16;;;;;;;5.28;3.55;;;16.30;99.90;;;;;;4145732;28;20033;-79
2021/05/10 04:21:17;;;;;;;4.47;3.28;;;16.60;99.90;;;;;;4145844;28;20042;-78
2021/05/10 04:23:21;;;;;;;5.78;3.17;;;16.80;99.90;;;;;;4147759;28;20030;-78
2021/05/10 04:25:22;;;;;;;4.70;3.83;;;17.00;99.90;;;;;;4146359;28;20611;-77
2021/05/10 04:27:23;;;;;;;3.97;3.25;;;17.20;99.90;;;;;;4146394;28;20041;-78
2021/05/10 04:29:24;;;;;;;10.88;2.85;;;17.40;99.90;;;;;;4148642;28;20044;-78
2021/05/10 04:31:25;;;;;;;10.90;3.35;;;17.50;99.90;;;;;;4147172;28;20026;-78
2021/05/10 04:33:34;;;;;;;8.18;3.33;;;17.70;99.90;;;;;;4146114;28;20049;-78
2021/05/10 04:35:36;;;;;;;5.88;2.60;;;17.80;99.90;;;;;;4145931;28;20469;-79
2021/05/10 04:37:38;;;;;;;5.30;2.85;;;17.90;99.90;;;;;;4145958;28;20037;-79
2021/05/10 04:39:38;;;;;;;3.80;3.17;;;18.00;99.90;;;;;;4145295;28;20075;-78
2021/05/10 04:41:39;;;;;;;4.30;2.42;;;18.10;99.90;;;;;;4145759;28;20050;-79
2021/05/10 04:43:40;;;;;;;10.75;2.70;;;18.20;99.90;;;;;;4146851;28;20381;-78
2021/05/10 04:45:41;;;;;;;4.32;2.67;;;18.30;99.90;;;;;;4145772;28;20108;-78
2021/05/10 04:47:42;;;;;;;5.88;2.90;;;18.50;99.90;;;;;;4145857;28;20034;-79
2021/05/10 04:49:43;;;;;;;10.57;2.92;;;18.60;99.90;;;;;;4153371;28;20042;-79
2021/05/10 04:51:44;;;;;;;6.93;2.78;;;18.60;99.90;;;;;;4141834;28;20070;-78
2021/05/10 04:53:44;;;;;;;7.07;2.85;;;18.60;99.90;;;;;;4146751;28;20128;-78
2021/05/10 04:55:45;;;;;;;4.82;3.55;;;18.70;99.90;;;;;;4146586;28;20417;-79
2021/05/10 04:57:46;;;;;;;4.13;2.92;;;18.80;99.90;;;;;;4145076;28;20049;-79
2021/05/10 04:59:47;;;;;;;7.65;3.85;;;18.80;99.90;;;;;;4145183;28;20034;-79
2021/05/10 05:01:48;;;;;;;5.93;2.88;;;18.80;99.90;;;;;;4146703;28;20088;-79
2021/05/10 05:03:49;;;;;;;5.78;2.95;;;18.90;99.90;;;;;;4145810;28;20101;-79
2021/05/10 05:05:50;;;;;;;8.75;2.72;;;18.90;99.90;;;;;;4151830;28;20042;-79
2021/05/10 05:07:50;;;;;;;3.83;3.20;;;18.90;99.90;;;;;;4145137;28;20125;-79
2021/05/10 05:09:51;;;;;;;5.53;2.83;;;18.90;99.90;;;;;;4144968;28;20489;-80
2021/05/10 05:11:52;;;;;;;3.80;2.60;;;18.90;99.90;;;;;;4144842;28;20500;-79
2021/05/10 05:13:53;;;;;;;6.90;2.85;;;19.00;99.90;;;;;;4143658;28;20038;-78
2021/05/10 05:15:54;;;;;;;8.82;3.33;;;18.90;99.90;;;;;;4143117;28;20037;-77
2021/05/10 05:17:54;;;;;;;3.65;2.72;;;18.90;99.90;;;;;;4146214;28;20038;-78
2021/05/10 05:19:55;;;;;;;4.80;3.10;;;19.00;99.90;;;;;;4153240;28;20034;-77
2021/05/10 05:21:56;;;;;;;12.80;4.53;;;19.00;99.90;;;;;;4143683;28;20045;-77
2021/05/10 05:23:57;;;;;;;11.45;3.10;;;19.10;99.90;;;;;;4159761;28;20029;-77
2021/05/10 05:26:03;;;;;;;5.20;2.97;;;19.00;99.90;;;;;;4143913;28;20041;-78
2021/05/10 05:28:05;;;;;;;4.70;2.67;;;19.00;99.90;;;;;;4144050;28;20516;-76
2021/05/10 05:30:09;;;;;;;5.97;2.83;;;18.80;99.90;;;;;;4152509;28;20516;-78
2021/05/10 05:32:09;;;;;;;3.92;2.95;;;18.80;99.90;;;;;;4152084;28;20120;-78
2021/05/10 05:34:10;;;;;;;5.22;2.90;;;18.80;99.90;;;;;;4140333;28;20175;-79
2021/05/10 05:36:11;;;;;;;6.68;3.00;;;18.70;99.90;;;;;;4144183;28;20102;-79
2021/05/10 05:38:12;;;;;;;10.30;3.63;;;18.70;99.90;;;;;;4136633;28;20035;-78
2021/05/10 05:40:13;;;;;;;8.93;2.85;;;18.70;99.90;;;;;;4133993;28;20026;-77
2021/05/10 05:42:14;;;;;;;4.72;3.08;;;18.70;99.90;;;;;;4146331;28;20034;-77
2021/05/10 05:44:14;;;;;;;4.43;3.03;;;18.60;99.90;;;;;;4133015;28;20077;-77
2021/05/10 05:46:19;;;;;;;5.53;2.70;;;18.50;99.90;;;;;;4129363;28;20046;-78
2021/05/10 05:48:20;;;;;;;8.13;3.03;;;18.50;99.90;;;;;;4166178;28;20500;-76
2021/05/10 05:50:21;;;;;;;7.78;2.90;;;18.50;99.90;;;;;;4147569;28;20042;-77
2021/05/10 05:52:22;;;;;;;5.15;3.03;;;18.50;99.90;;;;;;4147723;28;20064;-79
2021/05/10 05:54:24;;;;;;;4.35;3.70;;;18.30;99.90;;;;;;4148882;28;20107;-78
2021/05/10 05:56:26;;;;;;;5.63;3.20;;;18.20;99.90;;;;;;4157828;28;20148;-79
2021/05/10 05:58:26;;;;;;;4.40;2.67;;;18.00;99.90;;;;;;4149122;28;20088;-79
2021/05/10 06:00:28;;;;;;;5.50;2.85;;;17.70;99.90;;;;;;4148540;28;20493;-78
2021/05/10 06:02:29;;;;;;;3.55;2.13;;;17.60;99.90;;;;;;4148567;28;20048;-80
2021/05/10 06:04:29;;;;;;;2.92;1.90;;;17.40;99.90;;;;;;4149395;28;20037;-79
2021/05/10 06:06:30;;;;;;;4.13;1.85;;;17.30;99.90;;;;;;4165458;28;20041;-78
2021/05/10 06:08:31;;;;;;;1.90;1.80;;;17.30;99.90;;;;;;4133682;28;20478;-79
2021/05/10 06:10:32;;;;;;;2.10;1.77;;;17.40;99.90;;;;;;4149424;28;20038;-78
2021/05/10 06:12:33;;;;;;;2.17;1.85;;;17.40;99.90;;;;;;4148920;28;20551;-79
2021/05/10 06:14:34;;;;;;;4.40;1.67;;;17.50;99.90;;;;;;4137294;28;20038;-79
2021/05/10 06:16:35;;;;;;;1.67;1.55;;;17.70;99.90;;;;;;4143013;28;20504;-79
2021/05/10 06:18:36;;;;;;;2.40;1.40;;;17.90;99.90;;;;;;4162611;28;20155;-79
2021/05/10 06:20:37;;;;;;;2.03;1.92;;;17.90;99.90;;;;;;4148575;28;20042;-79
2021/05/10 06:22:39;;;;;;;2.42;1.90;;;18.00;99.90;;;;;;4147420;28;20077;-78
2021/05/10 06:24:40;;;;;;;2.20;1.90;;;18.10;99.90;;;;;;4149461;28;20111;-78
2021/05/10 06:26:43;;;;;;;2.17;1.67;;;18.20;99.90;;;;;;4148803;28;20433;-77
2021/05/10 06:28:45;;;;;;;;;;;18.30;99.90;;;;;;4147737;28;20532;-78
2021/05/10 06:30:47;;;;;;;1.65;1.55;;;18.30;99.90;;;;;;4165045;28;19956;-77
2021/05/10 06:32:50;;;;;;;2.60;1.77;;;18.20;99.90;;;;;;4148627;28;20121;-77
2021/05/10 06:34:50;;;;;;;2.75;1.98;;;18.10;99.90;;;;;;4164796;28;20092;-78
2021/05/10 06:36:51;;;;;;;1.80;1.70;;;18.10;99.90;;;;;;4147973;28;20042;-78
2021/05/10 06:38:52;;;;;;;3.17;1.98;;;18.00;99.90;;;;;;4149300;28;20037;-79
2021/05/10 06:40:53;;;;;;;2.47;2.20;;;18.00;99.90;;;;;;4133091;28;20117;-78
2021/05/10 06:42:54;;;;;;;2.00;1.73;;;18.00;99.90;;;;;;4164391;28;20045;-79
2021/05/10 06:44:55;;;;;;;10.27;4.07;;;18.00;99.90;;;;;;4148927;28;20748;-79
2021/05/10 06:46:55;;;;;;;11.07;5.88;;;18.10;99.90;;;;;;4147772;28;20108;-77
2021/05/10 06:48:56;;;;;;;22.20;8.82;;;18.20;99.90;;;;;;4145552;28;20609;-78
2021/05/10 06:50:58;;;;;;;8.50;3.53;;;18.50;99.90;;;;;;4149059;28;20067;-78
2021/05/10 06:53:01;;;;;;;5.35;3.33;;;18.50;99.90;;;;;;4140712;28;20054;-79
2021/05/10 06:55:03;;;;;;;7.45;3.80;;;18.50;99.90;;;;;;4162468;28;20105;-78
2021/05/10 06:57:06;;;;;;;5.15;2.70;;;18.30;99.90;;;;;;4142620;28;20439;-79
2021/05/10 06:59:07;;;;;;;2.60;2.22;;;18.40;99.90;;;;;;4143587;28;20381;-80
2021/05/10 07:01:08;;;;;;;3.22;2.35;;;18.50;99.90;;;;;;4164394;28;20096;-78
2021/05/10 07:03:08;;;;;;;5.32;2.40;;;18.60;99.90;;;;;;4145489;28;20075;-79
2021/05/10 07:05:10;;;;;;;3.17;2.33;;;18.50;99.90;;;;;;4146313;28;20025;-79
2021/05/10 07:07:10;;;;;;;3.85;2.28;;;18.40;99.90;;;;;;4179344;28;20522;-78
2021/05/10 07:09:11;;;;;;;3.80;2.20;;;18.40;99.90;;;;;;4161338;28;20022;-78
2021/05/10 07:11:12;;;;;;;2.97;2.03;;;18.40;99.90;;;;;;4146886;28;20046;-78
2021/05/10 07:13:13;;;;;;;2.85;2.05;;;18.30;99.90;;;;;;4138725;28;20026;-79
2021/05/10 07:15:14;;;;;;;2.28;2.08;;;18.30;99.90;;;;;;4147871;28;20416;-78
2021/05/10 07:17:15;;;;;;;3.88;1.85;;;18.30;99.90;;;;;;4148063;28;20075;-78
2021/05/10 07:19:16;;;;;;;3.65;2.42;;;18.40;99.90;;;;;;4146214;28;20076;-78
2021/05/10 07:21:17;;;;;;;3.25;2.00;;;18.50;99.90;;;;;;4145917;28;20036;-78
2021/05/10 07:23:18;;;;;;;2.40;2.10;;;18.50;99.90;;;;;;4144312;28;20030;-77
2021/05/10 07:25:18;;;;;;;2.38;1.95;;;18.60;99.90;;;;;;4147518;28;20026;-79
2021/05/10 07:27:19;;;;;;;2.83;2.10;;;18.60;99.90;;;;;;4161235;28;20068;-78
2021/05/10 07:29:20;;;;;;;5.70;2.55;;;18.50;99.90;;;;;;4146003;28;20022;-78
2021/05/10 07:31:21;;;;;;;3.22;2.28;;;18.50;99.90;;;;;;4162062;28;20071;-77
2021/05/10 07:33:22;;;;;;;2.38;1.90;;;18.50;99.90;;;;;;4145248;28;20041;-78
2021/05/10 07:35:23;;;;;;;4.57;2.55;;;18.60;99.90;;;;;;4161878;28;20042;-79
2021/05/10 07:37:23;;;;;;;3.55;2.28;;;18.60;99.90;;;;;;4147039;28;20509;-78
2021/05/10 07:39:24;;;;;;;3.75;2.45;;;18.40;99.90;;;;;;4143451;28;20046;-79
2021/05/10 07:41:25;;;;;;;2.30;2.03;;;18.50;99.90;;;;;;4147823;28;20034;-80
2021/05/10 07:43:26;;;;;;;3.38;2.10;;;18.40;99.90;;;;;;4159979;28;20037;-79
2021/05/10 07:45:29;;;;;;;3.35;2.10;;;18.40;99.90;;;;;;4146983;28;20042;-80
2021/05/10 07:47:30;;;;;;;;;;;18.30;99.90;;;;;;4141083;28;20116;-79
2021/05/10 07:49:31;;;;;;;6.22;2.85;;;18.20;99.90;;;;;;4142979;28;20008;-79
2021/05/10 07:51:32;;;;;;;3.22;2.53;;;17.90;99.90;;;;;;4147558;28;20041;-80
2021/05/10 07:53:32;;;;;;;2.05;1.85;;;17.80;99.90;;;;;;4154648;28;20586;-80
2021/05/10 07:55:34;;;;;;;4.03;2.40;;;17.90;99.90;;;;;;4145498;28;20030;-79
2021/05/10 07:57:35;;;;;;;2.67;2.28;;;17.90;99.90;;;;;;4141242;28;20037;-79
2021/05/10 07:59:37;;;;;;;3.25;2.08;;;18.10;99.90;;;;;;4141557;28;20038;-79
2021/05/10 08:01:38;;;;;;;2.92;2.20;;;18.00;99.90;;;;;;4145539;28;20041;-80
2021/05/10 08:03:40;;;;;;;2.90;1.90;;;18.00;99.90;;;;;;4146120;28;20037;-79
2021/05/10 08:05:45;;;;;;;2.58;2.08;;;18.00;99.90;;;;;;4144791;28;20034;-77
2021/05/10 08:07:47;;;;;;;4.28;2.60;;;18.00;99.90;;;;;;4134907;28;20045;-77
2021/05/10 08:09:48;;;;;;;3.97;2.53;;;17.90;99.90;;;;;;4139733;28;20034;-81
2021/05/10 08:11:49;;;;;;;9.25;2.65;;;17.60;99.90;;;;;;4146339;28;20052;-79
2021/05/10 08:13:50;;;;;;;4.82;2.90;;;17.30;99.90;;;;;;4145674;28;20425;-80
2021/05/10 08:15:51;;;;;;;3.17;2.20;;;16.80;99.90;;;;;;4146552;28;20037;-79
2021/05/10 08:17:52;;;;;;;3.85;2.50;;;16.50;99.90;;;;;;4146900;28;20148;-80
2021/05/10 08:19:52;;;;;;;3.00;2.38;;;16.20;99.90;;;;;;4156965;28;20049;-80
2021/05/10 08:22:01;;;;;;;4.90;3.05;;;16.30;99.90;;;;;;4153391;28;20026;-80
2021/05/10 08:24:02;;;;;;;6.20;2.10;;;16.50;99.90;;;;;;4161576;28;20033;-79
2021/05/10 08:26:03;;;;;;;3.13;2.83;;;16.80;99.90;;;;;;4158972;28;20087;-80
2021/05/10 08:28:05;;;;;;;3.67;3.25;;;16.90;99.90;;;;;;4145901;28;20145;-79
2021/05/10 08:30:09;;;;;;;4.53;2.65;;;17.10;99.90;;;;;;4145522;28;20038;-80
2021/05/10 08:32:10;;;;;;;5.10;3.08;;;17.20;99.90;;;;;;4128709;28;20030;-80
2021/05/10 08:34:12;;;;;;;3.30;3.03;;;17.30;99.90;;;;;;4145424;28;20121;-80
2021/05/10 08:36:15;;;;;;;4.25;2.83;;;17.30;99.90;;;;;;4145094;28;20056;-81
2021/05/10 08:38:16;;;;;;;4.55;3.03;;;17.30;99.90;;;;;;4158437;28;20037;-80
2021/05/10 08:40:17;;;;;;;3.53;2.78;;;17.50;99.90;;;;;;4177688;28;20143;-79
2021/05/10 08:42:18;;;;;;;4.43;3.13;;;17.50;99.90;;;;;;4145505;28;20026;-79
2021/05/10 08:44:19;;;;;;;3.80;3.00;;;17.50;99.90;;;;;;4136609;28;20044;-80
2021/05/10 08:46:23;;;;;;;2.75;2.42;;;17.30;99.90;;;;;;4146059;28;20026;-78
2021/05/10 08:48:25;;;;;;;4.93;2.60;;;17.30;99.90;;;;;;4131513;28;20034;-81
2021/05/10 08:50:26;;;;;;;3.63;2.70;;;17.30;99.90;;;;;;4176895;28;20041;-81
2021/05/10 08:52:27;;;;;;;6.25;2.92;;;17.20;99.90;;;;;;4144835;28;20076;-81
2021/05/10 08:54:28;;;;;;;4.53;3.35;;;17.20;99.90;;;;;;4144182;28;20427;-80
2021/05/10 08:56:29;;;;;;;4.40;2.80;;;17.10;99.90;;;;;;4145513;28;20041;-80
2021/05/10 08:58:38;;;;;;;3.38;2.70;;;17.10;99.90;;;;;;4152580;28;20029;-81
2021/05/10 09:00:53;;;;;;;3.55;3.20;;;17.10;99.90;;;;;;4146269;28;20050;-80
2021/05/10 09:03:12;;;;;;;6.03;3.20;;;16.80;99.90;;;;;;4146664;28;20128;-80
2021/05/10 09:05:22;;;;;;;5.53;3.47;;;16.60;99.90;;;;;;4134681;28;20038;-79
2021/05/10 09:07:23;;;;;;;4.72;3.30;;;16.30;99.90;;;;;;4145327;28;20067;-79
2021/05/10 09:09:24;;;;;;;4.75;3.17;;;16.20;99.90;;;;;;4137285;28;20057;-79
2021/05/10 09:11:25;;;;;;;3.45;2.67;;;16.00;99.90;;;;;;4144805;28;20034;-79
2021/05/10 09:13:34;;;;;;;2.42;2.20;;;15.90;99.90;;;;;;4161259;28;20037;-80
2021/05/10 09:15:37;;;;;;;3.67;2.65;;;15.80;99.90;;;;;;4144723;28;20121;-80
2021/05/10 09:17:48;;;;;;;2.88;2.17;;;15.70;99.90;;;;;;4143805;28;20068;-79
2021/05/10 09:19:57;;;;;;;2.17;1.90;;;15.80;99.90;;;;;;4158448;28;20059;-79
2021/05/10 09:21:58;;;;;;;3.70;2.70;;;15.90;99.90;;;;;;4143477;28;20022;-80
2021/05/10 09:23:59;;;;;;;3.38;2.45;;;15.80;99.90;;;;;;4160700;28;20030;-81
2021/05/10 09:26:00;;;;;;;3.55;3.20;;;15.70;99.90;;;;;;4143740;28;20026;-79
2021/05/10 09:28:24;;;;;;;3.33;2.50;;;15.60;99.90;;;;;;4144501;28;20041;-80
2021/05/10 09:30:25;;;;;;;4.70;2.33;;;15.60;99.90;;;;;;4136836;28;20034;-81
2021/05/10 09:32:30;;;;;;;2.60;2.40;;;15.80;99.90;;;;;;4144026;28;20033;-81
2021/05/10 09:34:31;;;;;;;3.83;2.53;;;15.80;99.90;;;;;;4144075;28;20037;-80
2021/05/10 09:36:40;;;;;;;3.55;2.50;;;15.90;99.90;;;;;;4141353;28;20129;-80
2021/05/10 09:38:42;;;;;;;2.30;2.08;;;16.00;99.90;;;;;;4134406;28;20065;-77
2021/05/10 09:40:51;;;;;;;4.78;2.67;;;16.20;99.90;;;;;;4161523;28;20408;-79
2021/05/10 09:42:55;;;;;;;2.92;2.70;;;16.30;99.90;;;;;;4159085;28;20090;-77
2021/05/10 09:44:58;;;;;;;2.60;2.40;;;16.50;99.90;;;;;;4144154;28;20046;-77
2021/05/10 09:47:02;;;;;;;3.53;2.67;;;16.80;99.90;;;;;;4143628;28;20049;-79
2021/05/10 09:49:03;;;;;;;3.22;2.83;;;17.00;99.90;;;;;;4159262;28;20107;-79
2021/05/10 09:51:15;;;;;;;3.03;2.72;;;16.90;99.90;;;;;;4142934;28;20036;-80
2021/05/10 09:53:27;;;;;;;3.40;2.90;;;16.70;99.90;;;;;;4135486;28;20120;-80
2021/05/10 09:55:51;;;;;;;4.65;2.88;;;16.50;99.90;;;;;;4143612;28;20030;-80
2021/05/10 09:57:55;;;;;;;4.72;2.75;;;16.40;99.90;;;;;;4148590;28;20374;-80
2021/05/10 10:00:20;;;;;;;3.60;3.00;;;16.30;99.90;;;;;;4145427;28;20121;-80
2021/05/10 10:02:39;;;;;;;4.85;3.08;;;16.20;99.90;;;;;;4146790;28;20040;-78
2021/05/10 10:04:50;;;;;;;3.70;3.40;;;16.10;99.90;;;;;;4159164;28;20067;-81
2021/05/10 10:06:51;;;;;;;6.47;4.05;;;15.80;99.90;;;;;;4143709;28;20041;-78
2021/05/10 10:08:53;;;;;;;3.45;3.15;;;15.50;99.90;;;;;;4128423;28;20569;-79
2021/05/10 10:10:56;;;;;;;5.78;4.18;;;15.30;99.90;;;;;;4143956;28;20034;-80
2021/05/10 10:12:58;;;;;;;4.53;4.03;;;15.00;99.90;;;;;;4143934;28;20397;-76
2021/05/10 10:14:59;;;;;;;6.38;4.35;;;14.90;99.90;;;;;;4157555;28;20029;-79
2021/05/10 10:17:00;;;;;;;5.25;4.40;;;14.90;99.90;;;;;;4159836;28;20033;-80
2021/05/10 10:19:06;;;;;;;4.82;4.18;;;14.80;99.90;;;;;;4155523;28;20084;-79
2021/05/10 10:21:10;;;;;;;6.40;4.93;;;14.90;99.90;;;;;;4126175;28;20069;-79
2021/05/10 10:23:14;;;;;;;4.97;4.47;;;15.00;99.90;;;;;;4148364;28;20127;-80
2021/05/10 10:25:14;;;;;;;4.70;4.30;;;15.00;99.90;;;;;;4142655;28;20037;-79
2021/05/10 10:27:16;;;;;;;5.75;4.75;;;14.90;99.90;;;;;;4143134;28;20493;-79
2021/05/10 10:29:18;;;;;;;5.68;5.05;;;14.90;99.90;;;;;;4126594;28;20052;-79
2021/05/10 10:31:25;;;;;;;5.15;4.65;;;15.00;99.90;;;;;;4143816;28;20561;-79
2021/05/10 10:33:58;;;;;;;6.00;4.88;;;15.10;99.90;;;;;;4145354;28;20041;-78
2021/05/10 10:36:00;;;;;;;6.57;5.85;;;14.90;99.90;;;;;;4144586;28;20653;-79
2021/05/10 10:38:02;;;;;;;5.60;5.07;;;14.70;99.90;;;;;;4147865;28;20076;-78